Time;durP1;ratioP1;P1;durP2;ratioP2;P2;SDS_P1;SDS_P2;PMS_P1;PMS_P2;Temp;Humidity;BMP_temperature;BMP_pressure;BME280_temperature;BME280_humidity;BME280_pressure;Samples;Min_cycle;Max_cycle;Signal;HPM_P1;HPM_P2
2022/03/18 00:00:33;;;;;;;1.33;1.23;;;7.60;1.00;;;;;;5014207;28;21000;-80
2022/03/18 00:03:03;;;;;;;0.60;0.30;;;7.60;1.00;;;;;;4995706;28;20498;-82
2022/03/18 00:05:32;;;;;;;0.70;0.27;;;7.60;1.00;;;;;;4999600;28;20466;-79
2022/03/18 00:08:00;;;;;;;0.93;0.83;;;7.60;1.00;;;;;;5013579;28;20478;-80
2022/03/18 00:10:29;;;;;;;0.60;0.50;;;7.50;1.00;;;;;;5033731;28;20789;-79
2022/03/18 00:12:57;;;;;;;0.63;0.40;;;7.50;1.00;;;;;;5026706;28;20474;-80
2022/03/18 00:15:27;;;;;;;0.60;0.40;;;7.50;1.00;;;;;;5012990;28;20477;-80
2022/03/18 00:17:56;;;;;;;0.50;0.17;;;7.50;1.00;;;;;;5002693;28;20455;-80
2022/03/18 00:20:25;;;;;;;0.80;0.67;;;7.50;1.00;;;;;;5006117;28;20464;-80
2022/03/18 00:22:53;;;;;;;0.50;0.17;;;7.50;1.00;;;;;;5011516;28;20483;-80
2022/03/18 00:25:21;;;;;;;0.50;0.10;;;7.40;1.00;;;;;;5020201;28;20456;-80
2022/03/18 00:27:49;;;;;;;1.33;1.23;;;7.40;1.00;;;;;;5029491;28;20544;-79
2022/03/18 00:30:19;;;;;;;0.70;0.40;;;7.40;1.00;;;;;;5018515;28;20442;-78
2022/03/18 00:32:49;;;;;;;0.87;0.40;;;7.40;1.00;;;;;;5037648;28;20477;-79
2022/03/18 00:35:36;;;;;;;0.60;0.30;;;7.40;1.00;;;;;;5013565;28;20471;-80
2022/03/18 00:38:04;;;;;;;1.33;1.23;;;7.40;1.00;;;;;;5027437;28;20445;-80
2022/03/18 00:40:33;;;;;;;0.90;0.50;;;7.30;1.00;;;;;;5031332;28;20455;-81
2022/03/18 00:43:03;;;;;;;1.43;1.17;;;7.30;1.00;;;;;;5005977;28;20497;-80
2022/03/18 00:45:32;;;;;;;2.03;0.97;;;7.30;1.00;;;;;;5004563;28;20479;-81
2022/03/18 00:53:41;;;;;;;0.87;0.60;;;7.30;1.00;;;;;;4995239;28;20855;-80
2022/03/18 00:56:09;;;;;;;1.10;0.80;;;7.20;1.00;;;;;;5029432;28;20480;-79
2022/03/18 00:58:37;;;;;;;0.60;0.37;;;7.20;1.00;;;;;;5024886;28;20445;-79
2022/03/18 01:01:05;;;;;;;1.33;0.30;;;7.20;1.00;;;;;;5021026;28;20456;-79
2022/03/18 01:03:33;;;;;;;1.27;1.17;;;7.20;1.00;;;;;;5013767;28;20475;-81
2022/03/18 01:06:02;;;;;;;0.60;0.20;;;7.20;1.00;;;;;;5012095;28;20458;-82
2022/03/18 01:08:30;;;;;;;0.50;0.23;;;7.20;1.00;;;;;;5006824;28;20450;-79
2022/03/18 01:11:01;;;;;;;1.13;0.67;;;7.10;1.00;;;;;;5007134;28;20463;-81
2022/03/18 01:13:29;;;;;;;0.50;0.20;;;;;;;;;;5008110;28;20477;-80
2022/03/18 01:15:57;;;;;;;0.60;0.60;;;7.10;1.00;;;;;;5021445;28;20471;-79
2022/03/18 01:18:25;;;;;;;3.07;1.03;;;7.10;1.00;;;;;;5019275;28;20453;-81
2022/03/18 01:20:53;;;;;;;2.60;1.53;;;7.10;1.00;;;;;;4979918;28;20467;-79
2022/03/18 01:23:23;;;;;;;0.53;0.27;;;7.10;1.00;;;;;;4979901;28;20481;-79
2022/03/18 01:25:50;;;;;;;0.50;0.20;;;7.00;1.00;;;;;;5010251;28;20630;-78
2022/03/18 01:28:18;;;;;;;0.80;0.43;;;7.00;1.00;;;;;;5021058;28;20470;-79
2022/03/18 01:30:46;;;;;;;1.00;0.93;;;7.10;1.00;;;;;;5024077;28;20448;-81
2022/03/18 01:33:14;;;;;;;1.00;0.80;;;7.10;1.00;;;;;;5016577;28;20467;-81
2022/03/18 01:35:42;;;;;;;0.50;0.17;;;7.10;1.00;;;;;;5026794;28;20572;-81
2022/03/18 01:38:10;;;;;;;0.50;0.20;;;7.00;1.00;;;;;;5032673;28;20527;-80
2022/03/18 01:40:40;;;;;;;0.50;0.20;;;7.00;1.00;;;;;;5011405;28;20446;-81
2022/03/18 01:43:09;;;;;;;1.00;0.70;;;7.00;1.00;;;;;;5016128;28;20695;-81
2022/03/18 01:45:37;;;;;;;1.17;0.93;;;5.60;1.00;;;;;;5007450;28;20630;-81
2022/03/18 01:48:06;;;;;;;0.60;0.23;;;7.00;1.00;;;;;;5005600;28;20539;-79
2022/03/18 01:50:35;;;;;;;0.97;0.53;;;7.00;1.00;;;;;;5000382;28;20474;-80
2022/03/18 01:53:03;;;;;;;1.03;0.87;;;6.90;1.00;;;;;;5008793;28;20536;-80
2022/03/18 01:55:31;;;;;;;0.50;0.10;;;6.90;1.00;;;;;;5014845;28;20483;-80
2022/03/18 01:58:00;;;;;;;0.50;0.10;;;6.90;1.00;;;;;;5013447;28;20459;-79
2022/03/18 02:00:28;;;;;;;4.50;1.40;;;6.90;1.00;;;;;;5010935;28;20547;-79
2022/03/18 02:02:57;;;;;;;1.67;0.93;;;6.90;1.00;;;;;;5023266;28;20503;-80
2022/03/18 02:05:26;;;;;;;0.90;0.37;;;6.90;1.00;;;;;;5031093;28;20507;-80
2022/03/18 02:07:53;;;;;;;2.90;1.47;;;6.90;1.00;;;;;;5020759;28;20451;-79
2022/03/18 02:10:21;;;;;;;0.60;0.40;;;6.80;1.00;;;;;;5035017;28;20466;-79
2022/03/18 02:12:49;;;;;;;0.87;0.73;;;6.80;1.00;;;;;;5006810;28;20467;-80
2022/03/18 02:15:22;;;;;;;0.90;0.20;;;6.80;1.00;;;;;;5022228;28;20458;-80
2022/03/18 02:17:50;;;;;;;0.90;0.73;;;6.80;1.00;;;;;;5022091;28;20478;-80
2022/03/18 02:20:18;;;;;;;1.07;0.40;;;6.80;1.00;;;;;;5020416;28;20451;-80
2022/03/18 02:22:48;;;;;;;2.93;0.60;;;6.80;1.00;;;;;;4979770;28;20961;-81
2022/03/18 02:25:20;;;;;;;0.77;0.30;;;;;;;;;;5022218;28;20450;-81
2022/03/18 02:27:59;;;;;;;1.43;0.87;;;6.70;1.00;;;;;;5019207;28;20510;-79
2022/03/18 02:30:30;;;;;;;0.60;0.30;;;6.70;1.00;;;;;;5023616;28;20445;-81
2022/03/18 02:32:58;;;;;;;1.33;1.23;;;6.70;1.00;;;;;;5017937;28;20501;-80
2022/03/18 02:35:28;;;;;;;1.33;0.80;;;6.70;1.00;;;;;;5003915;28;20452;-80
2022/03/18 02:37:58;;;;;;;0.50;0.10;;;6.70;1.00;;;;;;5023034;28;20464;-79
2022/03/18 02:40:28;;;;;;;2.00;0.50;;;6.70;1.00;;;;;;5006825;28;20955;-80
2022/03/18 02:42:55;;;;;;;7.20;2.43;;;6.60;1.00;;;;;;5000737;28;20850;-81
2022/03/18 02:45:24;;;;;;;2.20;1.13;;;6.70;1.00;;;;;;5005023;28;20482;-81
2022/03/18 02:47:52;;;;;;;0.67;0.67;;;6.60;1.00;;;;;;4981307;28;20471;-80
2022/03/18 02:50:19;;;;;;;3.13;0.83;;;6.60;1.00;;;;;;5019144;28;20540;-80
2022/03/18 02:52:48;;;;;;;0.90;0.70;;;6.60;1.00;;;;;;5031816;28;20493;-80
2022/03/18 02:55:18;;;;;;;1.80;1.67;;;6.60;1.00;;;;;;5024841;28;20460;-80
2022/03/18 02:57:46;;;;;;;2.50;0.87;;;6.60;1.00;;;;;;5013681;28;20545;-79
2022/03/18 03:00:16;;;;;;;1.37;0.43;;;6.60;1.00;;;;;;5023025;28;20443;-80
2022/03/18 03:02:44;;;;;;;8.03;1.53;;;6.60;1.00;;;;;;5022476;28;20506;-79
2022/03/18 03:08:01;;;;;;;15.20;2.53;;;6.60;1.00;;;;;;5011062;28;20453;-81
2022/03/18 03:10:31;;;;;;;2.47;1.23;;;6.60;1.00;;;;;;4983107;28;20460;-79
2022/03/18 03:13:01;;;;;;;0.60;0.20;;;6.60;1.00;;;;;;4978748;28;20477;-81
2022/03/18 03:15:29;;;;;;;2.10;0.97;;;6.60;1.00;;;;;;4990802;28;20458;-79
2022/03/18 03:17:57;;;;;;;1.90;0.93;;;6.60;1.00;;;;;;4997717;28;20439;-79
2022/03/18 03:20:25;;;;;;;8.47;1.80;;;6.50;1.00;;;;;;5011717;28;20458;-80
2022/03/18 03:22:53;;;;;;;0.60;0.40;;;;;;;;;;5020136;23;20478;-77
2022/03/18 03:25:21;;;;;;;1.30;0.30;;;6.50;1.00;;;;;;5000860;28;20490;-77
2022/03/18 03:27:53;;;;;;;0.50;0.30;;;6.50;1.00;;;;;;5006561;28;20452;-76
2022/03/18 03:30:22;;;;;;;0.87;0.43;;;6.50;1.00;;;;;;5006786;28;20482;-77
2022/03/18 03:32:50;;;;;;;3.63;2.20;;;6.50;1.00;;;;;;4999728;28;20451;-76
2022/03/18 03:35:18;;;;;;;2.30;2.20;;;6.50;1.00;;;;;;5003059;28;20458;-77
2022/03/18 03:37:47;;;;;;;12.80;2.00;;;6.50;1.00;;;;;;4986327;28;20461;-78
2022/03/18 03:40:15;;;;;;;1.03;0.93;;;6.60;1.00;;;;;;4981334;28;20487;-77
2022/03/18 03:42:45;;;;;;;0.63;0.40;;;6.50;1.00;;;;;;4997628;28;20543;-77
2022/03/18 03:45:14;;;;;;;2.93;2.73;;;6.50;1.00;;;;;;4979622;28;20515;-77
2022/03/18 03:47:42;;;;;;;0.70;0.60;;;6.50;1.00;;;;;;4997826;28;20477;-76
2022/03/18 03:50:11;;;;;;;0.50;0.10;;;6.50;1.00;;;;;;4998864;28;20457;-77
2022/03/18 03:52:39;;;;;;;0.50;0.20;;;6.50;1.00;;;;;;4994805;28;20878;-77
2022/03/18 03:55:09;;;;;;;23.80;3.70;;;6.50;1.00;;;;;;4990638;28;20475;-77
2022/03/18 03:57:38;;;;;;;0.50;0.20;;;6.50;1.00;;;;;;4980552;28;20487;-77
2022/03/18 04:00:07;;;;;;;0.70;0.60;;;6.50;1.00;;;;;;4963309;28;20846;-77
2022/03/18 04:02:37;;;;;;;4.43;3.87;;;6.50;1.00;;;;;;4968392;28;20450;-77
2022/03/18 04:05:07;;;;;;;2.80;1.40;;;6.40;1.00;;;;;;4988577;28;20484;-76
2022/03/18 04:07:36;;;;;;;1.00;0.87;;;6.40;1.00;;;;;;4978765;28;20502;-74
2022/03/18 04:10:05;;;;;;;0.70;0.23;;;6.40;1.00;;;;;;4995517;28;20466;-76
2022/03/18 04:12:33;;;;;;;1.43;0.80;;;6.40;1.00;;;;;;4997881;28;20456;-77
2022/03/18 04:15:02;;;;;;;0.50;0.30;;;6.40;1.00;;;;;;4989161;28;20464;-76
2022/03/18 04:17:39;;;;;;;1.80;1.50;;;6.30;1.00;;;;;;4978222;28;20452;-77
2022/03/18 04:20:09;;;;;;;0.60;0.43;;;6.40;1.00;;;;;;4977547;28;20452;-77
2022/03/18 04:22:38;;;;;;;3.03;1.53;;;6.40;1.00;;;;;;4987965;28;20572;-77
2022/03/18 04:25:07;;;;;;;0.50;0.17;;;6.30;1.00;;;;;;4999461;28;20523;-78
2022/03/18 04:27:36;;;;;;;0.50;0.10;;;6.30;1.00;;;;;;4999731;28;20503;-77
2022/03/18 04:30:06;;;;;;;1.23;0.30;;;6.30;1.00;;;;;;4987024;28;20460;-76
2022/03/18 04:32:34;;;;;;;0.50;0.20;;;6.30;1.00;;;;;;4985020;28;20455;-77
2022/03/18 04:35:04;;;;;;;0.50;0.30;;;6.30;1.00;;;;;;4989037;28;20499;-77
2022/03/18 04:37:32;;;;;;;0.50;0.10;;;6.20;1.00;;;;;;4992913;28;20458;-77
2022/03/18 04:40:01;;;;;;;3.07;1.40;;;6.30;1.00;;;;;;4988715;28;20459;-77
2022/03/18 04:42:29;;;;;;;1.23;0.70;;;6.30;1.00;;;;;;4986244;28;20534;-78
2022/03/18 04:44:57;;;;;;;1.10;0.87;;;6.20;1.00;;;;;;4990287;28;20566;-77
2022/03/18 04:47:25;;;;;;;3.27;2.43;;;6.20;1.00;;;;;;4996245;28;20518;-77
2022/03/18 04:49:52;;;;;;;2.37;1.17;;;6.20;1.00;;;;;;4988757;28;20526;-76
2022/03/18 04:52:22;;;;;;;0.70;0.63;;;6.20;1.00;;;;;;4990355;28;20457;-76
2022/03/18 04:54:50;;;;;;;0.60;0.40;;;6.20;1.00;;;;;;4995388;28;20549;-77
2022/03/18 04:57:18;;;;;;;0.70;0.20;;;6.20;1.00;;;;;;4997312;28;20440;-74
2022/03/18 04:59:48;;;;;;;2.73;2.20;;;6.20;1.00;;;;;;4997741;28;20953;-75
2022/03/18 05:02:17;;;;;;;0.50;0.20;;;6.20;1.00;;;;;;4975047;28;20453;-77
2022/03/18 05:04:46;;;;;;;2.50;2.30;;;6.10;1.00;;;;;;4997699;28;20490;-77
2022/03/18 05:07:14;;;;;;;2.10;1.80;;;6.10;1.00;;;;;;4997364;28;20568;-76
2022/03/18 05:09:46;;;;;;;0.77;0.60;;;6.10;1.00;;;;;;4985711;28;20458;-76
2022/03/18 05:12:15;;;;;;;1.90;1.80;;;6.10;1.00;;;;;;4992384;28;20939;-77
2022/03/18 05:14:47;;;;;;;0.60;0.47;;;6.20;1.00;;;;;;4999002;28;20462;-78
2022/03/18 05:17:16;;;;;;;1.27;0.90;;;6.10;1.00;;;;;;5000059;28;20440;-75
2022/03/18 05:19:44;;;;;;;1.47;0.53;;;;;;;;;;4985204;28;20458;-77
2022/03/18 05:22:12;;;;;;;1.83;1.43;;;6.10;1.00;;;;;;4988992;28;20559;-76
2022/03/18 05:24:40;;;;;;;4.30;1.50;;;6.10;1.00;;;;;;5001235;28;20488;-72
2022/03/18 05:27:10;;;;;;;1.43;1.33;;;6.10;1.00;;;;;;4991186;28;20446;-75
2022/03/18 05:29:37;;;;;;;2.00;1.90;;;6.10;1.00;;;;;;4966061;28;20937;-73
2022/03/18 05:32:07;;;;;;;9.83;2.60;;;6.10;1.00;;;;;;4958981;28;20471;-76
2022/03/18 05:34:35;;;;;;;3.30;1.07;;;6.10;1.00;;;;;;4995301;28;20462;-73
2022/03/18 05:37:05;;;;;;;4.97;2.00;;;6.10;1.00;;;;;;4995026;28;20447;-73
2022/03/18 05:39:33;;;;;;;2.70;1.87;;;6.10;1.00;;;;;;4975165;28;20451;-73
2022/03/18 05:42:02;;;;;;;8.90;3.50;;;6.00;1.00;;;;;;4976482;28;20462;-74
2022/03/18 05:44:31;;;;;;;0.50;0.10;;;6.00;1.00;;;;;;4978798;28;20552;-72
2022/03/18 05:46:59;;;;;;;2.43;2.23;;;6.00;1.00;;;;;;4964973;28;20469;-75
2022/03/18 05:49:27;;;;;;;0.50;0.20;;;6.00;1.00;;;;;;4976621;28;20451;-74
2022/03/18 05:51:55;;;;;;;1.07;1.03;;;6.00;1.00;;;;;;4977891;28;20442;-72
2022/03/18 05:54:22;;;;;;;1.57;0.73;;;5.90;1.00;;;;;;4976120;28;20482;-73
2022/03/18 05:56:52;;;;;;;0.60;0.50;;;5.90;1.00;;;;;;4976625;28;20455;-76
2022/03/18 05:59:21;;;;;;;1.73;0.93;;;5.90;1.00;;;;;;4971421;28;20838;-74
2022/03/18 06:01:53;;;;;;;4.37;3.47;;;5.90;1.00;;;;;;4982188;28;20456;-73
2022/03/18 06:04:22;;;;;;;11.30;3.40;;;5.90;1.00;;;;;;4998941;28;20471;-77
2022/03/18 06:06:50;;;;;;;1.67;1.57;;;5.90;1.00;;;;;;5004059;28;20522;-75
2022/03/18 06:12:07;;;;;;;1.83;1.03;;;5.90;1.00;;;;;;4977001;28;20480;-77
2022/03/18 06:14:35;;;;;;;1.17;0.83;;;5.90;1.00;;;;;;5000441;28;20459;-78
2022/03/18 06:17:06;;;;;;;1.90;1.60;;;5.90;1.00;;;;;;4999972;28;20488;-77
2022/03/18 06:19:35;;;;;;;2.97;2.60;;;5.90;1.00;;;;;;4990924;28;20455;-76
2022/03/18 06:22:04;;;;;;;5.13;2.97;;;5.90;1.00;;;;;;4980365;28;20950;-77
2022/03/18 06:24:32;;;;;;;8.40;2.43;;;5.90;1.00;;;;;;4993578;28;20475;-77
2022/03/18 06:27:01;;;;;;;0.60;0.20;;;5.90;1.00;;;;;;4988090;28;20491;-77
2022/03/18 06:29:29;;;;;;;1.57;0.83;;;5.90;1.00;;;;;;4975564;28;20546;-77
2022/03/18 06:31:58;;;;;;;2.40;1.37;;;5.80;1.00;;;;;;4990356;28;20457;-76
2022/03/18 06:34:28;;;;;;;1.97;1.83;;;5.90;1.00;;;;;;4973463;28;20511;-75
2022/03/18 06:37:00;;;;;;;1.70;1.60;;;5.90;1.00;;;;;;4998622;28;20462;-74
2022/03/18 06:39:28;;;;;;;1.10;0.70;;;5.90;1.00;;;;;;4985724;28;20521;-74
2022/03/18 06:41:56;;;;;;;2.20;0.73;;;5.90;1.00;;;;;;4995277;28;20458;-75
2022/03/18 06:44:25;;;;;;;1.80;1.33;;;5.90;1.00;;;;;;4994209;28;20462;-76
2022/03/18 06:46:53;;;;;;;0.60;0.20;;;5.90;1.00;;;;;;4993835;28;21037;-77
2022/03/18 06:49:21;;;;;;;13.00;2.97;;;6.00;1.00;;;;;;4997332;28;20583;-77
2022/03/18 06:51:50;;;;;;;0.60;0.47;;;5.90;1.00;;;;;;4983371;28;20486;-77
2022/03/18 06:54:18;;;;;;;0.60;0.33;;;6.00;1.00;;;;;;4981366;28;20583;-77
2022/03/18 06:56:46;;;;;;;3.03;1.53;;;6.00;1.00;;;;;;4992791;28;20468;-76
2022/03/18 06:59:14;;;;;;;0.77;0.77;;;6.00;1.00;;;;;;4994046;28;20465;-77
2022/03/18 07:01:42;;;;;;;0.50;0.20;;;6.10;1.00;;;;;;5006137;28;20457;-77
2022/03/18 07:04:10;;;;;;;6.23;2.70;;;6.10;1.00;;;;;;4994230;28;20565;-75
2022/03/18 07:06:38;;;;;;;0.60;0.47;;;6.10;1.00;;;;;;4997100;28;20490;-76
2022/03/18 07:09:08;;;;;;;0.97;0.77;;;6.10;1.00;;;;;;4999345;28;20990;-76
2022/03/18 07:11:36;;;;;;;2.73;0.83;;;6.10;1.00;;;;;;5002566;28;20526;-76
2022/03/18 07:14:04;;;;;;;2.10;1.60;;;6.10;1.00;;;;;;5000689;28;20591;-77
2022/03/18 07:19:18;;;;;;;3.93;1.13;;;6.10;1.00;;;;;;4981264;28;20489;-77
2022/03/18 07:21:46;;;;;;;0.80;0.80;;;6.20;1.00;;;;;;4978622;28;20444;-76
2022/03/18 07:24:16;;;;;;;2.60;2.40;;;6.20;1.00;;;;;;4975953;28;20480;-77
2022/03/18 07:26:44;;;;;;;2.63;1.83;;;6.30;1.00;;;;;;4994232;28;20484;-77
2022/03/18 07:29:11;;;;;;;3.03;2.27;;;6.30;1.00;;;;;;5001091;28;20458;-76
2022/03/18 07:31:39;;;;;;;3.87;1.83;;;6.20;1.00;;;;;;4997372;28;20451;-76
2022/03/18 07:34:08;;;;;;;1.87;1.40;;;6.20;1.00;;;;;;4996079;28;20486;-77
2022/03/18 07:36:36;;;;;;;2.90;2.00;;;6.20;1.00;;;;;;4998777;28;20443;-76
2022/03/18 07:39:03;;;;;;;0.50;0.20;;;6.20;1.00;;;;;;5002962;28;20568;-77
2022/03/18 07:41:34;;;;;;;1.83;1.30;;;6.30;1.00;;;;;;5004170;28;20526;-77
2022/03/18 07:44:03;;;;;;;0.50;0.20;;;6.30;1.00;;;;;;5003499;28;21049;-76
2022/03/18 07:46:30;;;;;;;2.40;0.97;;;6.30;1.00;;;;;;5001286;28;20512;-76
2022/03/18 07:48:59;;;;;;;4.60;2.20;;;6.30;1.00;;;;;;4997552;28;20556;-75
2022/03/18 07:51:27;;;;;;;6.40;0.93;;;6.30;1.00;;;;;;5001240;28;20545;-77
2022/03/18 07:53:55;;;;;;;1.60;1.33;;;6.30;1.00;;;;;;4988062;28;20547;-76
2022/03/18 07:56:23;;;;;;;4.33;1.77;;;6.30;1.00;;;;;;4995046;28;20451;-76
2022/03/18 07:58:54;;;;;;;0.80;0.60;;;6.30;1.00;;;;;;4996134;28;20772;-77
2022/03/18 08:01:23;;;;;;;1.07;0.97;;;6.30;1.00;;;;;;4997322;28;20539;-76
2022/03/18 08:03:51;;;;;;;3.30;1.17;;;6.30;1.00;;;;;;4996954;28;20983;-77
2022/03/18 08:06:20;;;;;;;0.70;0.57;;;6.40;1.00;;;;;;4996147;28;20479;-77
2022/03/18 08:08:48;;;;;;;11.63;1.57;;;6.40;1.00;;;;;;4996134;28;20505;-76
2022/03/18 08:11:16;;;;;;;9.40;3.20;;;6.40;1.00;;;;;;4995841;28;20461;-76
2022/03/18 08:13:50;;;;;;;0.97;0.87;;;6.40;1.00;;;;;;4994774;28;20470;-77
2022/03/18 08:16:19;;;;;;;1.80;0.83;;;6.40;1.00;;;;;;5002368;28;20454;-76
2022/03/18 08:18:48;;;;;;;0.50;0.20;;;6.60;1.00;;;;;;5009456;28;20478;-76
2022/03/18 08:21:16;;;;;;;1.93;0.87;;;6.70;1.00;;;;;;5006551;28;20452;-76
2022/03/18 08:23:44;;;;;;;4.73;1.23;;;6.70;1.00;;;;;;4999402;28;20550;-77
2022/03/18 08:26:12;;;;;;;0.77;0.60;;;6.80;1.00;;;;;;4981738;28;20455;-77
2022/03/18 08:28:41;;;;;;;0.93;0.47;;;6.80;1.00;;;;;;4998646;28;20466;-76
2022/03/18 08:31:09;;;;;;;1.63;0.73;;;6.80;1.00;;;;;;4998028;28;20541;-75
2022/03/18 08:33:39;;;;;;;16.03;3.97;;;6.80;1.00;;;;;;4996757;28;20505;-74
2022/03/18 08:36:07;;;;;;;0.70;0.67;;;6.80;1.00;;;;;;4996792;28;20525;-75
2022/03/18 08:38:35;;;;;;;0.60;0.30;;;6.80;1.00;;;;;;4996763;28;20482;-76
2022/03/18 08:41:03;;;;;;;4.07;2.83;;;7.00;1.00;;;;;;4996240;28;20464;-76
2022/03/18 08:43:31;;;;;;;4.00;3.50;;;7.00;1.00;;;;;;4996486;28;20574;-74
2022/03/18 08:46:00;;;;;;;4.23;2.30;;;7.00;1.00;;;;;;5004326;28;20455;-77
2022/03/18 08:48:28;;;;;;;5.53;5.20;;;7.10;1.00;;;;;;5004969;28;20484;-75
2022/03/18 08:50:58;;;;;;;1.17;0.73;;;7.20;1.00;;;;;;4985077;28;20464;-76
2022/03/18 08:53:26;;;;;;;0.60;0.30;;;7.30;1.00;;;;;;4992541;28;20469;-76
2022/03/18 08:55:56;;;;;;;0.60;0.30;;;7.30;1.00;;;;;;5002951;28;20833;-76
2022/03/18 08:58:24;;;;;;;0.50;0.10;;;7.30;1.00;;;;;;5001789;28;20446;-75
2022/03/18 09:00:52;;;;;;;6.33;2.63;;;7.40;1.00;;;;;;5004632;28;20579;-76
2022/03/18 09:03:20;;;;;;;0.90;0.60;;;7.40;1.00;;;;;;5004293;28;20520;-76
2022/03/18 09:05:49;;;;;;;0.50;0.20;;;7.40;1.00;;;;;;5003114;28;20543;-76
2022/03/18 09:08:18;;;;;;;4.30;2.20;;;7.50;1.00;;;;;;5002514;28;20498;-76
2022/03/18 09:10:47;;;;;;;2.40;1.27;;;7.50;1.00;;;;;;5003095;28;20457;-76
2022/03/18 09:13:15;;;;;;;1.13;0.80;;;7.40;1.00;;;;;;4998155;28;20474;-75
2022/03/18 09:15:43;;;;;;;6.77;1.90;;;7.40;1.00;;;;;;4988172;28;20449;-75
2022/03/18 09:18:12;;;;;;;2.47;2.23;;;7.30;1.00;;;;;;4980343;28;20440;-76
2022/03/18 09:20:40;;;;;;;5.90;1.63;;;7.00;1.00;;;;;;4984419;28;20442;-77
2022/03/18 09:23:08;;;;;;;1.83;1.00;;;7.20;1.00;;;;;;4983466;28;20503;-76
2022/03/18 09:25:38;;;;;;;0.50;0.30;;;7.20;1.00;;;;;;4993087;28;20524;-77
2022/03/18 09:28:06;;;;;;;0.97;0.87;;;7.20;1.00;;;;;;5001968;28;20571;-77
2022/03/18 09:30:50;;;;;;;2.97;1.87;;;7.20;1.00;;;;;;5028844;23;20723;-78
2022/03/18 09:33:18;;;;;;;3.80;2.60;;;7.30;1.00;;;;;;4996945;28;20466;-77
2022/03/18 09:35:46;;;;;;;0.50;0.10;;;7.20;1.00;;;;;;4995892;28;20466;-79
2022/03/18 09:38:14;;;;;;;0.60;0.23;;;7.20;1.00;;;;;;4996464;28;20441;-77
2022/03/18 09:40:43;;;;;;;2.50;1.57;;;7.20;1.00;;;;;;4995426;28;20642;-79
2022/03/18 09:43:35;;;;;;;0.57;0.33;;;7.30;1.00;;;;;;4996341;28;20802;-78
2022/03/18 09:46:04;;;;;;;0.70;0.50;;;7.30;1.00;;;;;;4996727;28;20460;-79
2022/03/18 09:48:52;;;;;;;0.97;0.87;;;7.40;1.00;;;;;;4996769;28;20487;-79
2022/03/18 09:51:20;;;;;;;0.60;0.60;;;7.50;1.00;;;;;;4994087;28;21101;-78
2022/03/18 09:54:08;;;;;;;3.40;1.53;;;7.50;1.00;;;;;;4997126;28;20463;-78
2022/03/18 09:56:40;;;;;;;0.70;0.47;;;7.60;1.00;;;;;;4995284;28;20460;-78
2022/03/18 09:59:08;;;;;;;1.97;1.70;;;7.70;1.00;;;;;;4994739;28;20451;-79
2022/03/18 10:01:36;;;;;;;1.10;0.57;;;7.70;1.00;;;;;;4995200;28;20564;-78
2022/03/18 10:04:06;;;;;;;0.50;0.20;;;7.80;1.00;;;;;;4995755;28;20460;-78
2022/03/18 10:06:35;;;;;;;0.60;0.20;;;7.80;1.00;;;;;;4995774;28;20456;-81
2022/03/18 10:09:04;;;;;;;0.60;0.30;;;7.90;1.00;;;;;;4994909;28;20965;-78
2022/03/18 10:11:36;;;;;;;0.50;0.20;;;8.10;1.00;;;;;;4995374;28;20472;-78
2022/03/18 10:14:08;;;;;;;1.63;0.77;;;8.20;1.00;;;;;;5005745;28;20451;-78
2022/03/18 10:16:37;;;;;;;0.60;0.20;;;8.30;99.90;;;;;;4999697;28;20459;-78
2022/03/18 10:19:08;;;;;;;4.70;2.50;;;8.40;99.90;;;;;;4995746;28;20460;-77
2022/03/18 10:21:50;;;;;;;0.80;0.73;;;8.40;99.90;;;;;;4996946;28;20491;-79
2022/03/18 10:24:20;;;;;;;1.47;0.60;;;8.50;99.90;;;;;;5002885;28;20497;-79
2022/03/18 10:26:49;;;;;;;0.90;0.50;;;8.60;99.90;;;;;;5001190;28;20477;-79
2022/03/18 10:29:19;;;;;;;0.60;0.23;;;8.80;99.90;;;;;;5000208;28;20996;-77
2022/03/18 10:32:00;;;;;;;1.07;1.07;;;8.90;99.90;;;;;;5011169;28;20479;-79
2022/03/18 10:37:21;;;;;;;1.00;0.40;;;9.10;99.90;;;;;;5000974;28;20463;-77
2022/03/18 10:39:50;;;;;;;2.20;1.07;;;9.20;99.90;;;;;;5000532;28;20473;-80
2022/03/18 10:42:20;;;;;;;0.60;0.10;;;9.20;99.90;;;;;;4998800;28;20975;-79
2022/03/18 10:44:51;;;;;;;0.60;0.20;;;9.30;99.90;;;;;;4999547;28;20453;-80
2022/03/18 10:47:27;;;;;;;5.20;2.90;;;9.40;99.90;;;;;;5000427;28;20521;-78
2022/03/18 10:50:13;;;;;;;0.60;0.10;;;9.50;99.90;;;;;;5000569;28;20452;-78
2022/03/18 10:53:01;;;;;;;0.97;0.80;;;9.60;99.90;;;;;;5002243;28;20451;-77
2022/03/18 10:55:31;;;;;;;0.70;0.30;;;9.70;99.90;;;;;;4996152;28;20552;-77
2022/03/18 10:58:00;;;;;;;0.60;0.10;;;9.90;99.90;;;;;;4995870;28;20441;-77
2022/03/18 11:00:31;;;;;;;1.53;1.43;;;10.00;99.90;;;;;;4995886;28;20552;-80
2022/03/18 11:03:01;;;;;;;0.60;0.20;;;10.20;99.90;;;;;;4987842;28;20491;-78
2022/03/18 11:05:33;;;;;;;0.60;0.10;;;10.20;99.90;;;;;;4995088;28;20484;-77
2022/03/18 11:08:04;;;;;;;0.60;0.20;;;10.30;99.90;;;;;;4995013;28;20465;-78
2022/03/18 11:13:23;;;;;;;0.73;0.73;;;10.50;99.90;;;;;;5007268;28;20432;-78
2022/03/18 11:15:53;;;;;;;0.60;0.10;;;10.70;99.90;;;;;;5001827;28;20456;-78
2022/03/18 11:18:21;;;;;;;0.60;0.10;;;11.90;99.90;;;;;;4998078;28;20470;-80
2022/03/18 11:20:51;;;;;;;1.93;0.93;;;10.90;99.90;;;;;;4994816;28;20465;-80
2022/03/18 11:23:22;;;;;;;2.60;0.50;;;11.00;99.90;;;;;;4995647;28;20469;-79
2022/03/18 11:26:00;;;;;;;0.60;0.10;;;10.90;99.90;;;;;;5007682;28;20432;-78
2022/03/18 11:28:28;;;;;;;1.20;0.37;;;10.90;99.90;;;;;;5014844;28;20504;-78
2022/03/18 11:31:05;;;;;;;0.80;0.50;;;10.90;99.90;;;;;;5016264;28;20562;-79
2022/03/18 11:33:34;;;;;;;0.70;0.50;;;10.90;99.90;;;;;;5016572;28;20447;-79
2022/03/18 11:36:07;;;;;;;0.70;0.53;;;10.90;99.90;;;;;;5018542;28;20436;-78
2022/03/18 11:39:02;;;;;;;0.60;0.20;;;11.00;99.90;;;;;;5021138;28;20806;-78
2022/03/18 11:41:47;;;;;;;0.60;0.10;;;11.20;99.90;;;;;;5022321;28;20503;-79
2022/03/18 11:45:00;;;;;;;0.70;0.40;;;11.30;99.90;;;;;;5019057;28;20996;-79
2022/03/18 11:47:40;;;;;;;0.60;0.20;;;11.40;99.90;;;;;;5004838;28;20441;-79
2022/03/18 11:50:49;;;;;;;0.70;0.30;;;11.50;99.90;;;;;;5018591;28;20473;-78
2022/03/18 11:53:55;;;;;;;0.60;0.10;;;11.60;99.90;;;;;;5024357;28;20443;-79
2022/03/18 11:56:40;;;;;;;0.70;0.30;;;11.80;99.90;;;;;;5000457;28;20463;-80
2022/03/18 11:59:46;;;;;;;1.80;0.77;;;11.90;99.90;;;;;;5017576;28;20537;-79
2022/03/18 12:02:15;;;;;;;0.60;0.10;;;12.00;99.90;;;;;;5006748;28;20495;-79
2022/03/18 12:04:46;;;;;;;0.60;0.10;;;12.00;99.90;;;;;;5016390;28;20579;-78
2022/03/18 12:07:18;;;;;;;2.23;0.50;;;12.00;99.90;;;;;;5016858;28;20473;-79
2022/03/18 12:09:57;;;;;;;6.00;0.30;;;12.00;99.90;;;;;;5017311;28;20523;-78
2022/03/18 12:12:28;;;;;;;0.60;0.10;;;12.00;99.90;;;;;;5017361;28;20451;-79
2022/03/18 12:14:58;;;;;;;0.60;0.10;;;11.90;99.90;;;;;;5006847;28;20911;-77
2022/03/18 12:17:26;;;;;;;0.60;0.10;;;12.00;99.90;;;;;;5015211;28;20445;-78
2022/03/18 12:19:56;;;;;;;1.73;1.07;;;12.20;99.90;;;;;;5016707;28;20487;-77
2022/03/18 12:22:25;;;;;;;0.60;0.10;;;12.30;99.90;;;;;;5020760;28;20441;-79
2022/03/18 12:24:55;;;;;;;0.60;0.10;;;12.40;99.90;;;;;;5021979;28;20472;-77
2022/03/18 12:27:30;;;;;;;0.60;0.10;;;12.60;99.90;;;;;;5000384;28;20536;-78
2022/03/18 12:29:58;;;;;;;0.70;0.23;;;;;;;;;;5006397;28;20531;-78
2022/03/18 12:32:32;;;;;;;0.80;0.70;;;12.80;99.90;;;;;;5011204;28;20497;-79
2022/03/18 12:35:04;;;;;;;1.10;0.83;;;12.80;99.90;;;;;;5002781;28;20445;-79
2022/03/18 12:37:34;;;;;;;0.60;0.20;;;12.70;99.90;;;;;;5003508;28;20583;-79
2022/03/18 12:40:08;;;;;;;0.60;0.10;;;12.80;99.90;;;;;;5003858;28;20461;-78
2022/03/18 12:42:47;;;;;;;0.70;0.30;;;12.80;99.90;;;;;;5001125;28;20452;-78
2022/03/18 12:45:24;;;;;;;0.60;0.10;;;12.90;99.90;;;;;;5000986;28;20477;-77
2022/03/18 12:47:54;;;;;;;0.60;0.10;;;13.00;99.90;;;;;;5002503;28;20465;-78
2022/03/18 12:50:28;;;;;;;0.60;0.20;;;13.20;99.90;;;;;;5001519;28;20580;-79
2022/03/18 12:52:57;;;;;;;0.60;0.10;;;13.20;99.90;;;;;;5001805;28;20456;-79
2022/03/18 12:55:26;;;;;;;0.60;0.30;;;13.30;99.90;;;;;;5002256;28;20441;-78
2022/03/18 12:57:54;;;;;;;0.60;0.20;;;13.20;99.90;;;;;;5001991;28;20925;-78
2022/03/18 13:00:22;;;;;;;0.60;0.10;;;13.30;99.90;;;;;;5000481;28;20486;-79
2022/03/18 13:03:17;;;;;;;1.60;1.43;;;13.30;99.90;;;;;;5003839;28;20442;-78
2022/03/18 13:05:50;;;;;;;0.70;0.30;;;13.40;99.90;;;;;;5010386;28;20418;-78
2022/03/18 13:08:18;;;;;;;0.60;0.20;;;13.30;99.90;;;;;;5014437;28;20487;-79
2022/03/18 13:10:54;;;;;;;0.70;0.40;;;13.30;99.90;;;;;;5013286;28;20493;-79
2022/03/18 13:13:22;;;;;;;0.70;0.20;;;13.30;99.90;;;;;;5008389;28;20513;-77
2022/03/18 13:15:58;;;;;;;0.60;0.17;;;13.40;99.90;;;;;;5000529;28;20550;-78
2022/03/18 13:18:27;;;;;;;0.70;0.20;;;13.50;99.90;;;;;;5000581;28;20449;-79
2022/03/18 13:20:58;;;;;;;0.60;0.10;;;13.60;99.90;;;;;;5001685;28;20791;-78
2022/03/18 13:23:27;;;;;;;0.60;0.30;;;13.50;99.90;;;;;;5001015;28;20448;-78
2022/03/18 13:25:57;;;;;;;0.80;0.73;;;13.60;99.90;;;;;;5011717;28;20448;-80
2022/03/18 13:28:26;;;;;;;5.07;0.30;;;13.60;99.90;;;;;;5018760;28;20469;-78
2022/03/18 13:33:42;;;;;;;0.60;0.20;;;13.60;99.90;;;;;;5028022;28;20836;-77
2022/03/18 13:36:24;;;;;;;0.60;0.10;;;13.70;99.90;;;;;;5022144;28;20469;-78
2022/03/18 13:38:54;;;;;;;0.83;0.47;;;13.80;99.90;;;;;;5020704;28;20449;-78
2022/03/18 13:41:22;;;;;;;0.60;0.10;;;13.80;99.90;;;;;;5018784;28;20470;-78
2022/03/18 13:43:55;;;;;;;0.60;0.10;;;13.90;99.90;;;;;;5021580;28;20817;-76